sensor_id;sensor_type;location;lat;lon;timestamp;noise_LAeq;noise_LA_min;noise_LA_max;noise_LA01;noise_LA95
75037;Laerm;64247;51.540;5.854;2023-08-06T00:01:00;28.70;26.93;33.73;;
75037;Laerm;64247;51.540;5.854;2023-08-06T00:03:01;28.47;26.83;33.87;;
75037;Laerm;64247;51.540;5.854;2023-08-06T00:05:02;28.65;26.66;33.18;;
75037;Laerm;64247;51.540;5.854;2023-08-06T00:07:04;28.63;26.89;33.88;;
75037;Laerm;64247;51.540;5.854;2023-08-06T00:09:05;28.72;26.82;33.36;;
75037;Laerm;64247;51.540;5.854;2023-08-06T00:11:06;28.72;26.92;33.48;;
75037;Laerm;64247;51.540;5.854;2023-08-06T00:13:07;28.65;26.71;33.53;;
75037;Laerm;64247;51.540;5.854;2023-08-06T00:15:09;28.47;26.71;34.14;;
75037;Laerm;64247;51.540;5.854;2023-08-06T00:17:10;28.66;26.93;33.51;;
75037;Laerm;64247;51.540;5.854;2023-08-06T00:19:11;28.86;26.82;33.48;;
75037;Laerm;64247;51.540;5.854;2023-08-06T00:21:11;28.90;26.65;33.51;;
75037;Laerm;64247;51.540;5.854;2023-08-06T00:23:15;28.86;26.71;33.20;;
75037;Laerm;64247;51.540;5.854;2023-08-06T00:25:16;28.87;26.82;33.97;;
75037;Laerm;64247;51.540;5.854;2023-08-06T00:27:17;28.68;26.88;33.34;;
75037;Laerm;64247;51.540;5.854;2023-08-06T00:29:18;28.95;26.83;33.66;;
75037;Laerm;64247;51.540;5.854;2023-08-06T00:31:19;28.90;26.80;33.50;;
75037;Laerm;64247;51.540;5.854;2023-08-06T00:33:21;28.99;26.93;34.13;;
75037;Laerm;64247;51.540;5.854;2023-08-06T00:35:22;28.93;26.74;35.11;;
75037;Laerm;64247;51.540;5.854;2023-08-06T00:37:23;28.62;26.81;43.76;;
75037;Laerm;64247;51.540;5.854;2023-08-06T00:39:24;28.81;26.91;34.04;;
75037;Laerm;64247;51.540;5.854;2023-08-06T00:41:25;28.85;26.89;33.86;;
75037;Laerm;64247;51.540;5.854;2023-08-06T00:43:26;28.84;26.72;33.25;;
75037;Laerm;64247;51.540;5.854;2023-08-06T00:45:28;28.79;26.54;33.64;;
75037;Laerm;64247;51.540;5.854;2023-08-06T00:47:30;28.64;26.67;33.57;;
75037;Laerm;64247;51.540;5.854;2023-08-06T00:49:31;28.47;26.71;33.59;;
75037;Laerm;64247;51.540;5.854;2023-08-06T00:51:34;28.58;26.78;33.19;;
75037;Laerm;64247;51.540;5.854;2023-08-06T00:53:40;28.57;26.76;34.56;;
75037;Laerm;64247;51.540;5.854;2023-08-06T00:55:44;28.69;26.92;33.88;;
75037;Laerm;64247;51.540;5.854;2023-08-06T00:57:46;28.59;26.73;33.89;;
75037;Laerm;64247;51.540;5.854;2023-08-06T00:59:47;28.62;26.81;34.22;;
75037;Laerm;64247;51.540;5.854;2023-08-06T01:01:48;28.48;26.78;33.19;;
75037;Laerm;64247;51.540;5.854;2023-08-06T01:03:51;28.57;26.74;33.60;;
75037;Laerm;64247;51.540;5.854;2023-08-06T01:05:52;28.65;26.84;33.28;;
75037;Laerm;64247;51.540;5.854;2023-08-06T01:08:19;28.59;26.80;33.28;;
75037;Laerm;64247;51.540;5.854;2023-08-06T01:10:39;28.38;26.74;33.05;;
75037;Laerm;64247;51.540;5.854;2023-08-06T01:15:30;28.74;26.77;34.00;;
75037;Laerm;64247;51.540;5.854;2023-08-06T01:17:35;28.48;26.59;33.78;;
75037;Laerm;64247;51.540;5.854;2023-08-06T01:19:36;28.90;26.86;34.47;;
75037;Laerm;64247;51.540;5.854;2023-08-06T01:21:37;28.95;26.82;32.95;;
75037;Laerm;64247;51.540;5.854;2023-08-06T01:23:38;28.95;26.52;33.63;;
75037;Laerm;64247;51.540;5.854;2023-08-06T01:31:05;28.55;26.91;34.00;;
75037;Laerm;64247;51.540;5.854;2023-08-06T01:33:16;28.59;26.84;33.96;;
75037;Laerm;64247;51.540;5.854;2023-08-06T01:35:21;28.63;26.71;33.52;;
75037;Laerm;64247;51.540;5.854;2023-08-06T01:37:23;28.46;26.72;32.91;;
75037;Laerm;64247;51.540;5.854;2023-08-06T01:39:24;28.60;26.79;33.64;;
75037;Laerm;64247;51.540;5.854;2023-08-06T01:41:25;28.59;26.92;33.61;;
75037;Laerm;64247;51.540;5.854;2023-08-06T01:43:26;28.62;26.86;34.20;;
75037;Laerm;64247;51.540;5.854;2023-08-06T01:45:27;28.61;26.79;33.69;;
75037;Laerm;64247;51.540;5.854;2023-08-06T01:47:28;28.60;26.78;40.96;;
75037;Laerm;64247;51.540;5.854;2023-08-06T01:49:29;28.54;26.69;33.55;;
75037;Laerm;64247;51.540;5.854;2023-08-06T01:51:29;28.61;26.74;33.26;;
75037;Laerm;64247;51.540;5.854;2023-08-06T01:53:30;28.60;26.84;33.35;;
75037;Laerm;64247;51.540;5.854;2023-08-06T01:55:32;28.73;26.89;34.29;;
75037;Laerm;64247;51.540;5.854;2023-08-06T01:57:33;28.62;26.74;33.63;;
75037;Laerm;64247;51.540;5.854;2023-08-06T01:59:34;28.46;26.76;33.51;;
75037;Laerm;64247;51.540;5.854;2023-08-06T02:01:35;28.60;26.98;34.11;;
75037;Laerm;64247;51.540;5.854;2023-08-06T02:03:35;28.61;26.81;33.63;;
75037;Laerm;64247;51.540;5.854;2023-08-06T02:05:36;28.69;26.68;33.55;;
75037;Laerm;64247;51.540;5.854;2023-08-06T02:07:37;28.76;26.67;33.46;;
75037;Laerm;64247;51.540;5.854;2023-08-06T02:09:40;28.81;26.79;34.49;;
75037;Laerm;64247;51.540;5.854;2023-08-06T02:11:41;28.45;26.79;33.89;;
75037;Laerm;64247;51.540;5.854;2023-08-06T02:13:41;28.90;26.66;34.11;;
75037;Laerm;64247;51.540;5.854;2023-08-06T02:15:46;28.85;26.83;33.78;;
75037;Laerm;64247;51.540;5.854;2023-08-06T02:17:50;28.93;26.61;34.38;;
75037;Laerm;64247;51.540;5.854;2023-08-06T02:19:50;28.93;26.66;34.00;;
75037;Laerm;64247;51.540;5.854;2023-08-06T02:21:51;28.90;26.86;34.42;;
75037;Laerm;64247;51.540;5.854;2023-08-06T02:23:52;28.49;26.94;33.83;;
75037;Laerm;64247;51.540;5.854;2023-08-06T02:26:04;28.85;26.96;33.48;;
75037;Laerm;64247;51.540;5.854;2023-08-06T02:28:05;28.95;26.81;33.35;;
75037;Laerm;64247;51.540;5.854;2023-08-06T02:30:06;28.92;26.89;34.35;;
75037;Laerm;64247;51.540;5.854;2023-08-06T02:32:07;28.80;26.77;33.98;;
75037;Laerm;64247;51.540;5.854;2023-08-06T02:34:08;28.82;26.83;34.13;;
75037;Laerm;64247;51.540;5.854;2023-08-06T02:36:09;28.47;26.84;33.63;;
75037;Laerm;64247;51.540;5.854;2023-08-06T02:38:10;28.89;26.90;33.71;;
75037;Laerm;64247;51.540;5.854;2023-08-06T02:40:11;28.91;26.86;34.17;;
75037;Laerm;64247;51.540;5.854;2023-08-06T02:42:12;28.92;26.79;33.18;;
75037;Laerm;64247;51.540;5.854;2023-08-06T02:44:14;28.82;26.85;33.12;;
75037;Laerm;64247;51.540;5.854;2023-08-06T02:46:15;28.66;26.88;33.88;;
75037;Laerm;64247;51.540;5.854;2023-08-06T02:48:16;28.64;26.72;33.98;;
75037;Laerm;64247;51.540;5.854;2023-08-06T02:50:18;28.69;26.77;33.86;;
75037;Laerm;64247;51.540;5.854;2023-08-06T02:52:19;28.60;26.53;33.83;;
75037;Laerm;64247;51.540;5.854;2023-08-06T02:54:20;28.68;26.76;33.13;;
75037;Laerm;64247;51.540;5.854;2023-08-06T02:56:21;28.77;26.86;33.66;;
75037;Laerm;64247;51.540;5.854;2023-08-06T02:58:42;28.48;26.96;34.06;;
75037;Laerm;64247;51.540;5.854;2023-08-06T03:01:02;28.48;26.90;33.87;;
75037;Laerm;64247;51.540;5.854;2023-08-06T03:03:04;28.61;26.78;33.47;;
75037;Laerm;64247;51.540;5.854;2023-08-06T03:05:34;28.49;26.73;33.85;;
75037;Laerm;64247;51.540;5.854;2023-08-06T03:07:36;28.60;26.93;34.01;;
75037;Laerm;64247;51.540;5.854;2023-08-06T03:09:44;28.62;26.87;33.44;;
75037;Laerm;64247;51.540;5.854;2023-08-06T03:11:46;28.59;27.06;33.39;;
75037;Laerm;64247;51.540;5.854;2023-08-06T03:13:49;28.51;26.93;33.93;;
75037;Laerm;64247;51.540;5.854;2023-08-06T03:15:56;28.58;26.69;37.65;;
75037;Laerm;64247;51.540;5.854;2023-08-06T03:17:57;28.64;26.85;33.79;;
75037;Laerm;64247;51.540;5.854;2023-08-06T03:19:59;28.61;26.68;33.60;;
75037;Laerm;64247;51.540;5.854;2023-08-06T03:22:00;28.62;26.81;34.00;;
75037;Laerm;64247;51.540;5.854;2023-08-06T03:24:01;28.63;26.64;34.88;;
75037;Laerm;64247;51.540;5.854;2023-08-06T03:26:05;28.80;26.73;49.29;;
75037;Laerm;64247;51.540;5.854;2023-08-06T03:28:07;28.76;26.75;33.33;;
75037;Laerm;64247;51.540;5.854;2023-08-06T03:30:10;28.87;26.80;33.18;;
75037;Laerm;64247;51.540;5.854;2023-08-06T03:32:12;28.91;26.90;33.72;;
75037;Laerm;64247;51.540;5.854;2023-08-06T03:34:14;28.96;26.87;33.97;;
75037;Laerm;64247;51.540;5.854;2023-08-06T03:36:16;28.94;26.82;34.32;;
75037;Laerm;64247;51.540;5.854;2023-08-06T03:38:17;28.48;26.68;33.91;;
75037;Laerm;64247;51.540;5.854;2023-08-06T03:40:18;28.92;26.92;33.63;;
75037;Laerm;64247;51.540;5.854;2023-08-06T03:42:19;28.92;26.88;33.29;;
75037;Laerm;64247;51.540;5.854;2023-08-06T03:44:20;28.88;26.83;33.29;;
75037;Laerm;64247;51.540;5.854;2023-08-06T03:46:21;28.96;26.75;34.53;;
75037;Laerm;64247;51.540;5.854;2023-08-06T03:48:22;28.52;26.52;33.65;;
75037;Laerm;64247;51.540;5.854;2023-08-06T03:50:23;28.81;26.75;34.31;;
75037;Laerm;64247;51.540;5.854;2023-08-06T03:52:24;28.88;26.84;34.07;;
75037;Laerm;64247;51.540;5.854;2023-08-06T03:54:25;28.84;26.74;34.59;;
75037;Laerm;64247;51.540;5.854;2023-08-06T03:56:26;28.92;26.80;33.08;;
75037;Laerm;64247;51.540;5.854;2023-08-06T03:58:27;28.80;26.63;34.13;;
75037;Laerm;64247;51.540;5.854;2023-08-06T04:00:28;28.44;26.90;33.40;;
75037;Laerm;64247;51.540;5.854;2023-08-06T04:02:28;28.79;26.84;33.53;;
75037;Laerm;64247;51.540;5.854;2023-08-06T04:04:29;30.10;26.64;53.25;;
75037;Laerm;64247;51.540;5.854;2023-08-06T04:06:30;28.90;26.71;39.89;;
75037;Laerm;64247;51.540;5.854;2023-08-06T04:08:31;28.90;26.65;34.79;;
75037;Laerm;64247;51.540;5.854;2023-08-06T04:10:32;28.41;26.75;34.20;;
75037;Laerm;64247;51.540;5.854;2023-08-06T04:12:35;28.66;26.74;33.73;;
75037;Laerm;64247;51.540;5.854;2023-08-06T04:14:39;28.61;26.64;33.50;;
75037;Laerm;64247;51.540;5.854;2023-08-06T04:16:40;28.60;26.73;34.08;;
75037;Laerm;64247;51.540;5.854;2023-08-06T04:18:42;28.54;26.78;33.74;;
75037;Laerm;64247;51.540;5.854;2023-08-06T04:20:44;28.55;26.84;34.17;;
75037;Laerm;64247;51.540;5.854;2023-08-06T04:22:46;28.40;26.68;32.98;;
75037;Laerm;64247;51.540;5.854;2023-08-06T04:24:47;28.59;26.85;34.20;;
75037;Laerm;64247;51.540;5.854;2023-08-06T04:26:48;28.57;26.85;34.30;;
75037;Laerm;64247;51.540;5.854;2023-08-06T04:28:49;28.57;26.83;33.48;;
75037;Laerm;64247;51.540;5.854;2023-08-06T04:30:50;28.62;26.93;34.18;;
75037;Laerm;64247;51.540;5.854;2023-08-06T04:32:52;28.49;26.79;33.38;;
75037;Laerm;64247;51.540;5.854;2023-08-06T04:34:55;28.52;26.92;33.36;;
75037;Laerm;64247;51.540;5.854;2023-08-06T04:36:56;28.60;26.85;34.06;;
75037;Laerm;64247;51.540;5.854;2023-08-06T04:38:58;28.64;26.74;34.13;;
75037;Laerm;64247;51.540;5.854;2023-08-06T04:40:59;28.61;26.80;33.74;;
75037;Laerm;64247;51.540;5.854;2023-08-06T04:43:00;28.64;26.93;34.49;;
75037;Laerm;64247;51.540;5.854;2023-08-06T04:45:02;28.49;26.78;33.34;;
75037;Laerm;64247;51.540;5.854;2023-08-06T04:47:03;28.62;26.80;39.56;;
75037;Laerm;64247;51.540;5.854;2023-08-06T04:49:04;28.61;26.75;35.71;;
75037;Laerm;64247;51.540;5.854;2023-08-06T04:51:05;28.56;26.49;33.30;;
75037;Laerm;64247;51.540;5.854;2023-08-06T04:53:06;28.62;26.47;34.23;;
75037;Laerm;64247;51.540;5.854;2023-08-06T04:55:06;28.76;26.77;33.90;;
75037;Laerm;64247;51.540;5.854;2023-08-06T04:57:07;28.48;26.87;37.19;;
75037;Laerm;64247;51.540;5.854;2023-08-06T04:59:08;28.57;26.81;33.72;;
75037;Laerm;64247;51.540;5.854;2023-08-06T05:01:09;28.58;26.81;36.90;;
75037;Laerm;64247;51.540;5.854;2023-08-06T05:03:10;28.57;26.85;33.80;;
75037;Laerm;64247;51.540;5.854;2023-08-06T05:05:11;28.58;26.89;33.61;;
75037;Laerm;64247;51.540;5.854;2023-08-06T05:07:12;28.58;26.75;34.57;;
75037;Laerm;64247;51.540;5.854;2023-08-06T05:09:13;28.46;26.76;33.94;;
75037;Laerm;64247;51.540;5.854;2023-08-06T05:11:14;28.64;26.95;33.68;;
75037;Laerm;64247;51.540;5.854;2023-08-06T05:13:14;28.86;26.70;33.32;;
75037;Laerm;64247;51.540;5.854;2023-08-06T05:15:15;29.01;26.90;33.93;;
75037;Laerm;64247;51.540;5.854;2023-08-06T05:17:16;29.05;26.68;35.56;;
75037;Laerm;64247;51.540;5.854;2023-08-06T05:19:17;28.55;26.73;33.50;;
75037;Laerm;64247;51.540;5.854;2023-08-06T05:21:18;28.89;26.89;33.48;;
75037;Laerm;64247;51.540;5.854;2023-08-06T05:23:19;29.02;26.56;33.97;;
75037;Laerm;64247;51.540;5.854;2023-08-06T05:25:20;28.98;26.86;33.67;;
75037;Laerm;64247;51.540;5.854;2023-08-06T05:27:21;28.99;26.70;33.82;;
75037;Laerm;64247;51.540;5.854;2023-08-06T05:29:21;29.25;26.68;48.95;;
75037;Laerm;64247;51.540;5.854;2023-08-06T05:31:22;28.88;26.96;42.13;;
75037;Laerm;64247;51.540;5.854;2023-08-06T05:33:23;29.50;26.78;49.20;;
75037;Laerm;64247;51.540;5.854;2023-08-06T05:35:24;29.70;26.81;46.37;;
75037;Laerm;64247;51.540;5.854;2023-08-06T05:37:25;29.63;26.96;45.86;;
75037;Laerm;64247;51.540;5.854;2023-08-06T05:39:26;30.67;26.83;49.43;;
75037;Laerm;64247;51.540;5.854;2023-08-06T05:41:27;29.73;26.67;46.48;;
75037;Laerm;64247;51.540;5.854;2023-08-06T05:43:28;28.93;26.87;44.41;;
75037;Laerm;64247;51.540;5.854;2023-08-06T05:45:29;29.03;26.72;34.56;;
75037;Laerm;64247;51.540;5.854;2023-08-06T05:47:30;28.89;26.86;33.42;;
75037;Laerm;64247;51.540;5.854;2023-08-06T05:49:31;28.83;26.77;33.90;;
75037;Laerm;64247;51.540;5.854;2023-08-06T05:51:31;29.08;26.83;45.05;;
75037;Laerm;64247;51.540;5.854;2023-08-06T05:53:32;31.11;26.91;53.44;;
75037;Laerm;64247;51.540;5.854;2023-08-06T05:55:34;29.96;27.00;42.46;;
75037;Laerm;64247;51.540;5.854;2023-08-06T05:57:34;29.01;26.71;33.90;;
75037;Laerm;64247;51.540;5.854;2023-08-06T05:59:35;29.87;26.87;53.67;;
75037;Laerm;64247;51.540;5.854;2023-08-06T06:01:36;28.83;26.79;33.65;;
75037;Laerm;64247;51.540;5.854;2023-08-06T06:03:37;28.85;26.73;34.72;;
75037;Laerm;64247;51.540;5.854;2023-08-06T06:05:38;28.66;26.80;44.68;;
75037;Laerm;64247;51.540;5.854;2023-08-06T06:07:42;28.88;26.89;33.78;;
75037;Laerm;64247;51.540;5.854;2023-08-06T06:09:43;28.89;26.68;35.41;;
75037;Laerm;64247;51.540;5.854;2023-08-06T06:11:44;28.78;26.96;33.34;;
75037;Laerm;64247;51.540;5.854;2023-08-06T06:13:44;28.75;26.81;34.45;;
75037;Laerm;64247;51.540;5.854;2023-08-06T06:15:48;28.70;26.84;33.94;;
75037;Laerm;64247;51.540;5.854;2023-08-06T06:17:49;28.53;26.83;36.77;;
75037;Laerm;64247;51.540;5.854;2023-08-06T06:19:50;28.82;26.94;33.71;;
75037;Laerm;64247;51.540;5.854;2023-08-06T06:21:51;28.62;26.78;33.71;;
75037;Laerm;64247;51.540;5.854;2023-08-06T06:23:52;32.93;26.73;55.20;;
75037;Laerm;64247;51.540;5.854;2023-08-06T06:25:53;28.64;26.76;33.86;;
75037;Laerm;64247;51.540;5.854;2023-08-06T06:27:54;28.55;26.72;33.82;;
75037;Laerm;64247;51.540;5.854;2023-08-06T06:29:55;28.44;26.78;33.68;;
75037;Laerm;64247;51.540;5.854;2023-08-06T06:31:56;28.59;26.70;33.49;;
75037;Laerm;64247;51.540;5.854;2023-08-06T06:33:56;28.62;26.65;33.93;;
75037;Laerm;64247;51.540;5.854;2023-08-06T06:35:58;28.65;26.78;33.35;;
75037;Laerm;64247;51.540;5.854;2023-08-06T06:37:59;28.63;26.97;34.42;;
75037;Laerm;64247;51.540;5.854;2023-08-06T06:40:00;28.54;26.73;33.87;;
75037;Laerm;64247;51.540;5.854;2023-08-06T06:42:01;28.54;26.75;33.96;;
75037;Laerm;64247;51.540;5.854;2023-08-06T06:44:10;28.60;26.80;33.26;;
75037;Laerm;64247;51.540;5.854;2023-08-06T06:46:11;28.61;26.36;33.79;;
75037;Laerm;64247;51.540;5.854;2023-08-06T06:48:12;28.78;26.90;33.78;;
75037;Laerm;64247;51.540;5.854;2023-08-06T06:50:13;28.76;26.95;33.71;;
75037;Laerm;64247;51.540;5.854;2023-08-06T06:52:14;29.13;26.82;36.92;;
75037;Laerm;64247;51.540;5.854;2023-08-06T06:54:15;28.60;26.73;33.52;;
75037;Laerm;64247;51.540;5.854;2023-08-06T06:56:16;28.85;26.90;33.46;;
75037;Laerm;64247;51.540;5.854;2023-08-06T06:58:16;28.59;26.83;33.22;;
75037;Laerm;64247;51.540;5.854;2023-08-06T07:00:17;28.61;26.77;33.79;;
75037;Laerm;64247;51.540;5.854;2023-08-06T07:02:18;28.63;26.72;34.43;;
75037;Laerm;64247;51.540;5.854;2023-08-06T07:04:19;28.53;26.71;33.60;;
75037;Laerm;64247;51.540;5.854;2023-08-06T07:06:20;28.61;26.70;33.83;;
75037;Laerm;64247;51.540;5.854;2023-08-06T07:08:21;28.62;26.69;33.47;;
75037;Laerm;64247;51.540;5.854;2023-08-06T07:10:22;28.70;26.86;33.82;;
75037;Laerm;64247;51.540;5.854;2023-08-06T07:12:23;28.83;26.75;33.45;;
75037;Laerm;64247;51.540;5.854;2023-08-06T07:14:25;28.94;26.82;34.41;;
75037;Laerm;64247;51.540;5.854;2023-08-06T07:16:26;28.44;26.83;34.50;;
75037;Laerm;64247;51.540;5.854;2023-08-06T07:18:27;29.07;26.56;40.98;;
75037;Laerm;64247;51.540;5.854;2023-08-06T07:20:28;28.99;26.76;33.83;;
75037;Laerm;64247;51.540;5.854;2023-08-06T07:22:32;28.94;26.70;33.64;;
75037;Laerm;64247;51.540;5.854;2023-08-06T07:24:33;28.90;26.78;33.57;;
75037;Laerm;64247;51.540;5.854;2023-08-06T07:26:34;28.69;26.93;33.83;;
75037;Laerm;64247;51.540;5.854;2023-08-06T07:28:34;28.68;26.84;34.55;;
75037;Laerm;64247;51.540;5.854;2023-08-06T07:30:39;28.93;26.81;33.10;;
75037;Laerm;64247;51.540;5.854;2023-08-06T07:32:40;28.97;26.94;34.20;;
75037;Laerm;64247;51.540;5.854;2023-08-06T07:34:41;28.90;26.68;33.18;;
75037;Laerm;64247;51.540;5.854;2023-08-06T07:36:46;29.30;26.83;36.17;;
75037;Laerm;64247;51.540;5.854;2023-08-06T07:38:47;28.89;26.58;34.26;;
75037;Laerm;64247;51.540;5.854;2023-08-06T07:40:52;28.58;26.47;33.57;;
75037;Laerm;64247;51.540;5.854;2023-08-06T07:42:52;28.82;26.81;33.67;;
75037;Laerm;64247;51.540;5.854;2023-08-06T07:44:55;28.78;26.80;33.36;;
75037;Laerm;64247;51.540;5.854;2023-08-06T07:46:56;28.79;26.77;33.26;;
75037;Laerm;64247;51.540;5.854;2023-08-06T07:48:57;28.72;26.87;34.96;;
75037;Laerm;64247;51.540;5.854;2023-08-06T07:50:58;28.52;26.75;33.19;;
75037;Laerm;64247;51.540;5.854;2023-08-06T07:53:00;28.76;26.68;33.74;;
75037;Laerm;64247;51.540;5.854;2023-08-06T07:55:01;28.99;26.77;33.51;;
75037;Laerm;64247;51.540;5.854;2023-08-06T07:57:05;28.69;26.49;34.38;;
75037;Laerm;64247;51.540;5.854;2023-08-06T07:59:06;28.69;26.79;33.93;;
75037;Laerm;64247;51.540;5.854;2023-08-06T08:01:07;28.64;26.90;34.55;;
75037;Laerm;64247;51.540;5.854;2023-08-06T08:03:08;28.49;26.92;33.75;;
75037;Laerm;64247;51.540;5.854;2023-08-06T08:05:09;28.61;26.87;33.64;;
75037;Laerm;64247;51.540;5.854;2023-08-06T08:07:10;28.63;26.87;34.05;;
75037;Laerm;64247;51.540;5.854;2023-08-06T08:09:11;28.67;26.93;34.27;;
75037;Laerm;64247;51.540;5.854;2023-08-06T08:11:14;31.28;27.29;36.13;;
75037;Laerm;64247;51.540;5.854;2023-08-06T08:13:16;32.67;29.85;35.30;;
75037;Laerm;64247;51.540;5.854;2023-08-06T08:15:17;31.31;28.41;36.16;;
75037;Laerm;64247;51.540;5.854;2023-08-06T08:17:18;29.20;27.25;34.88;;
75037;Laerm;64247;51.540;5.854;2023-08-06T08:19:19;29.72;27.71;34.16;;
75037;Laerm;64247;51.540;5.854;2023-08-06T08:21:20;29.87;27.86;33.96;;
75037;Laerm;64247;51.540;5.854;2023-08-06T08:23:21;29.98;28.00;34.12;;
75037;Laerm;64247;51.540;5.854;2023-08-06T08:25:22;29.49;27.23;41.01;;
75037;Laerm;64247;51.540;5.854;2023-08-06T08:27:23;28.83;27.14;34.15;;
75037;Laerm;64247;51.540;5.854;2023-08-06T08:29:24;28.93;26.84;33.35;;
75037;Laerm;64247;51.540;5.854;2023-08-06T08:31:25;29.16;27.21;34.23;;
75037;Laerm;64247;51.540;5.854;2023-08-06T08:33:26;29.21;27.23;33.79;;
75037;Laerm;64247;51.540;5.854;2023-08-06T08:35:27;29.76;27.60;34.75;;
75037;Laerm;64247;51.540;5.854;2023-08-06T08:37:28;29.14;27.46;34.42;;
75037;Laerm;64247;51.540;5.854;2023-08-06T08:39:29;29.70;27.05;42.65;;
75037;Laerm;64247;51.540;5.854;2023-08-06T08:41:31;29.35;26.88;33.34;;
75037;Laerm;64247;51.540;5.854;2023-08-06T08:43:33;29.46;27.21;33.85;;
75037;Laerm;64247;51.540;5.854;2023-08-06T08:45:39;29.41;27.51;34.59;;
75037;Laerm;64247;51.540;5.854;2023-08-06T08:47:44;29.54;27.15;34.84;;
75037;Laerm;64247;51.540;5.854;2023-08-06T08:49:48;28.99;26.92;45.89;;
75037;Laerm;64247;51.540;5.854;2023-08-06T08:51:52;29.40;27.08;33.54;;
75037;Laerm;64247;51.540;5.854;2023-08-06T08:53:55;29.62;27.40;35.76;;
75037;Laerm;64247;51.540;5.854;2023-08-06T08:55:59;29.70;27.14;34.51;;
75037;Laerm;64247;51.540;5.854;2023-08-06T08:58:00;30.25;27.41;44.28;;
75037;Laerm;64247;51.540;5.854;2023-08-06T09:00:02;31.81;27.26;50.98;;
75037;Laerm;64247;51.540;5.854;2023-08-06T09:02:04;29.74;27.49;42.44;;
75037;Laerm;64247;51.540;5.854;2023-08-06T09:04:07;29.48;27.44;34.33;;
75037;Laerm;64247;51.540;5.854;2023-08-06T09:06:11;29.96;27.59;39.01;;
75037;Laerm;64247;51.540;5.854;2023-08-06T09:08:18;32.26;28.08;44.77;;
75037;Laerm;64247;51.540;5.854;2023-08-06T09:10:22;33.21;28.44;52.52;;
75037;Laerm;64247;51.540;5.854;2023-08-06T09:12:26;30.64;28.08;38.35;;
75037;Laerm;64247;51.540;5.854;2023-08-06T09:14:27;31.56;28.79;39.68;;
75037;Laerm;64247;51.540;5.854;2023-08-06T09:16:28;31.29;27.71;50.26;;
75037;Laerm;64247;51.540;5.854;2023-08-06T09:18:30;31.10;27.87;39.44;;
75037;Laerm;64247;51.540;5.854;2023-08-06T09:20:34;32.51;28.60;41.82;;
75037;Laerm;64247;51.540;5.854;2023-08-06T09:22:35;31.37;28.28;45.58;;
75037;Laerm;64247;51.540;5.854;2023-08-06T09:24:38;30.76;28.06;38.47;;
75037;Laerm;64247;51.540;5.854;2023-08-06T09:26:43;30.82;28.28;39.90;;
75037;Laerm;64247;51.540;5.854;2023-08-06T09:28:44;30.56;28.25;36.65;;
75037;Laerm;64247;51.540;5.854;2023-08-06T09:30:47;30.89;28.65;35.76;;
75037;Laerm;64247;51.540;5.854;2023-08-06T09:32:49;30.60;28.09;37.20;;
75037;Laerm;64247;51.540;5.854;2023-08-06T09:34:56;30.83;28.47;37.98;;
75037;Laerm;64247;51.540;5.854;2023-08-06T09:36:58;30.64;28.50;35.95;;
75037;Laerm;64247;51.540;5.854;2023-08-06T09:38:58;31.05;28.39;45.99;;
75037;Laerm;64247;51.540;5.854;2023-08-06T09:40:59;30.06;27.78;34.88;;
75037;Laerm;64247;51.540;5.854;2023-08-06T09:43:00;30.43;27.82;45.87;;
75037;Laerm;64247;51.540;5.854;2023-08-06T09:45:07;30.28;27.76;42.91;;
75037;Laerm;64247;51.540;5.854;2023-08-06T09:47:08;31.23;27.88;45.89;;
75037;Laerm;64247;51.540;5.854;2023-08-06T09:49:09;30.41;28.05;39.35;;
75037;Laerm;64247;51.540;5.854;2023-08-06T09:51:13;32.02;28.19;47.58;;
75037;Laerm;64247;51.540;5.854;2023-08-06T09:53:14;33.07;28.35;43.07;;
75037;Laerm;64247;51.540;5.854;2023-08-06T09:55:16;30.40;27.56;36.28;;
75037;Laerm;64247;51.540;5.854;2023-08-06T09:57:17;30.16;27.39;39.62;;
75037;Laerm;64247;51.540;5.854;2023-08-06T09:59:18;29.93;27.48;45.31;;
75037;Laerm;64247;51.540;5.854;2023-08-06T10:01:21;34.67;27.89;59.08;;
75037;Laerm;64247;51.540;5.854;2023-08-06T10:03:24;31.09;28.05;44.91;;
75037;Laerm;64247;51.540;5.854;2023-08-06T10:05:27;30.44;27.82;42.12;;
75037;Laerm;64247;51.540;5.854;2023-08-06T10:07:30;31.07;27.41;51.24;;
75037;Laerm;64247;51.540;5.854;2023-08-06T10:09:31;29.82;27.39;41.78;;
75037;Laerm;64247;51.540;5.854;2023-08-06T10:11:32;29.54;27.41;37.97;;
75037;Laerm;64247;51.540;5.854;2023-08-06T10:13:35;34.11;27.59;58.90;;
75037;Laerm;64247;51.540;5.854;2023-08-06T10:15:39;29.48;27.31;34.32;;
75037;Laerm;64247;51.540;5.854;2023-08-06T10:17:42;31.17;27.46;55.18;;
75037;Laerm;64247;51.540;5.854;2023-08-06T10:19:46;29.50;27.11;34.97;;
75037;Laerm;64247;51.540;5.854;2023-08-06T10:22:25;29.91;27.31;45.88;;
75037;Laerm;64247;51.540;5.854;2023-08-06T10:25:05;31.31;27.33;52.83;;
75037;Laerm;64247;51.540;5.854;2023-08-06T10:27:06;30.54;27.36;44.40;;
75037;Laerm;64247;51.540;5.854;2023-08-06T10:29:36;30.57;27.65;46.27;;
75037;Laerm;64247;51.540;5.854;2023-08-06T10:31:59;30.47;27.56;43.71;;
75037;Laerm;64247;51.540;5.854;2023-08-06T10:34:00;38.71;27.78;65.86;;
75037;Laerm;64247;51.540;5.854;2023-08-06T10:36:02;30.31;27.74;44.47;;
75037;Laerm;64247;51.540;5.854;2023-08-06T10:38:22;30.43;27.58;46.19;;
75037;Laerm;64247;51.540;5.854;2023-08-06T10:40:33;30.98;27.52;52.94;;
75037;Laerm;64247;51.540;5.854;2023-08-06T10:42:34;30.71;27.27;47.43;;
75037;Laerm;64247;51.540;5.854;2023-08-06T10:44:35;29.30;27.31;35.27;;
75037;Laerm;64247;51.540;5.854;2023-08-06T10:46:42;29.04;27.19;36.69;;
75037;Laerm;64247;51.540;5.854;2023-08-06T10:48:45;29.65;27.20;36.87;;
75037;Laerm;64247;51.540;5.854;2023-08-06T10:50:46;33.22;27.01;58.21;;
75037;Laerm;64247;51.540;5.854;2023-08-06T10:52:48;29.99;27.13;39.34;;
75037;Laerm;64247;51.540;5.854;2023-08-06T10:54:48;29.59;26.99;37.17;;
75037;Laerm;64247;51.540;5.854;2023-08-06T10:56:49;30.09;27.20;37.21;;
75037;Laerm;64247;51.540;5.854;2023-08-06T10:58:55;30.03;27.23;42.69;;
75037;Laerm;64247;51.540;5.854;2023-08-06T11:00:59;29.96;27.09;39.17;;
75037;Laerm;64247;51.540;5.854;2023-08-06T11:03:00;30.39;26.95;46.75;;
75037;Laerm;64247;51.540;5.854;2023-08-06T11:05:09;29.17;26.89;40.64;;
75037;Laerm;64247;51.540;5.854;2023-08-06T11:07:10;28.70;26.89;39.92;;
75037;Laerm;64247;51.540;5.854;2023-08-06T11:09:11;29.77;27.20;35.11;;
75037;Laerm;64247;51.540;5.854;2023-08-06T11:11:14;29.47;26.82;36.64;;
75037;Laerm;64247;51.540;5.854;2023-08-06T11:13:18;29.62;27.18;36.59;;
75037;Laerm;64247;51.540;5.854;2023-08-06T11:15:20;30.72;27.36;36.85;;
75037;Laerm;64247;51.540;5.854;2023-08-06T11:17:22;29.42;26.91;34.51;;
75037;Laerm;64247;51.540;5.854;2023-08-06T11:19:23;29.50;26.95;36.78;;
75037;Laerm;64247;51.540;5.854;2023-08-06T11:21:25;30.31;27.21;36.48;;
75037;Laerm;64247;51.540;5.854;2023-08-06T11:23:28;30.34;27.15;36.34;;
75037;Laerm;64247;51.540;5.854;2023-08-06T11:25:37;29.88;27.14;37.55;;
75037;Laerm;64247;51.540;5.854;2023-08-06T11:27:38;29.21;27.06;37.26;;
75037;Laerm;64247;51.540;5.854;2023-08-06T11:29:41;29.73;27.16;35.14;;
75037;Laerm;64247;51.540;5.854;2023-08-06T11:31:42;29.43;27.05;35.90;;
75037;Laerm;64247;51.540;5.854;2023-08-06T11:33:43;29.87;27.22;37.62;;